RYR4LO GMTT-LPPR
Flight info
| Callsign | RYR4LO |
|---|---|
| Flight time | N/A |
| Altitude | 18000 |
| Route | NOLRO DCT ADKIM Z53 VJF/N0440F360 N10 SVL M744 ROSAL DCT LASIB DCT ABLEG |
| Aircraft | B738/M-SDE2E3FGHIRWXY/LB1 |
Departure
| Time | 2026-04-25 15:16 |
|---|---|
| Airport | Tangier Ibn Battuta Airport (GMTT) |
Arrival
| Time | N/A |
|---|---|
| Airport | Francisco de Sá Carneiro Airport (LPPR) |
| Time | Latitude | Longitude | Altitude | Speed | Heading |
|---|---|---|---|---|---|
| 2026-04-25 14:48 | 35.72526 | -5.91193 | 55 ft | 0 kts | 355° |
| 2026-04-25 15:06 | 35.72506 | -5.91191 | 52 ft | 4 kts | 350° |
| 2026-04-25 15:06 | 35.72488 | -5.91186 | 56 ft | 4 kts | 343° |
| 2026-04-25 15:06 | 35.72464 | -5.91174 | 51 ft | 4 kts | 323° |
| 2026-04-25 15:06 | 35.72450 | -5.91153 | 54 ft | 3 kts | 269° |
| 2026-04-25 15:07 | 35.72450 | -5.91149 | 55 ft | 1 kts | 266° |
| 2026-04-25 15:10 | 35.72447 | -5.91188 | 59 ft | 8 kts | 266° |
| 2026-04-25 15:10 | 35.72436 | -5.91391 | 55 ft | 16 kts | 266° |
| 2026-04-25 15:11 | 35.72427 | -5.91548 | 53 ft | 20 kts | 270° |
| 2026-04-25 15:11 | 35.72491 | -5.91672 | 55 ft | 14 kts | 330° |
| 2026-04-25 15:11 | 35.72587 | -5.91693 | 59 ft | 14 kts | 355° |
| 2026-04-25 15:12 | 35.72786 | -5.91713 | 59 ft | 14 kts | 355° |
| 2026-04-25 15:12 | 35.72890 | -5.91726 | 54 ft | 15 kts | 341° |
| 2026-04-25 15:12 | 35.72953 | -5.91827 | 59 ft | 16 kts | 280° |
| 2026-04-25 15:12 | 35.72961 | -5.91923 | 53 ft | 17 kts | 274° |
| 2026-04-25 15:13 | 35.72978 | -5.92090 | 57 ft | 13 kts | 279° |
| 2026-04-25 15:13 | 35.73001 | -5.92324 | 55 ft | 15 kts | 276° |
| 2026-04-25 15:13 | 35.73012 | -5.92447 | 56 ft | 14 kts | 277° |
| 2026-04-25 15:14 | 35.73024 | -5.92562 | 59 ft | 13 kts | 277° |
| 2026-04-25 15:14 | 35.73034 | -5.92672 | 57 ft | 14 kts | 277° |
| 2026-04-25 15:14 | 35.73048 | -5.92812 | 57 ft | 19 kts | 277° |
| 2026-04-25 15:14 | 35.73066 | -5.92995 | 59 ft | 23 kts | 277° |
| 2026-04-25 15:15 | 35.73079 | -5.93151 | 57 ft | 18 kts | 274° |
| 2026-04-25 15:15 | 35.73111 | -5.93292 | 55 ft | 17 kts | 312° |
| 2026-04-25 15:15 | 35.73217 | -5.93320 | 53 ft | 17 kts | 32° |
| 2026-04-25 15:15 | 35.73265 | -5.93209 | 55 ft | 13 kts | 90° |
| 2026-04-25 15:16 | 35.73229 | -5.92813 | 52 ft | 89 kts | 96° |
| 2026-04-25 15:16 | 35.73151 | -5.91732 | 135 ft | 156 kts | 93° |
| 2026-04-25 15:16 | 35.72861 | -5.88880 | 1450 ft | 181 kts | 96° |
| 2026-04-25 15:17 | 35.72560 | -5.85608 | 2441 ft | 209 kts | 95° |
| 2026-04-25 15:17 | 35.72398 | -5.83765 | 2905 ft | 221 kts | 95° |
| 2026-04-25 15:17 | 35.72230 | -5.81814 | 3322 ft | 239 kts | 95° |
| 2026-04-25 15:18 | 35.72084 | -5.79751 | 3898 ft | 253 kts | 87° |
| 2026-04-25 15:18 | 35.73866 | -5.76125 | 5692 ft | 256 kts | 34° |
| 2026-04-25 15:18 | 35.75539 | -5.75380 | 6539 ft | 262 kts | 8° |
| 2026-04-25 15:19 | 35.77385 | -5.75617 | 7197 ft | 275 kts | 344° |
| 2026-04-25 15:19 | 35.78566 | -5.76189 | 7668 ft | 279 kts | 340° |
| 2026-04-25 15:19 | 35.80930 | -5.77538 | 8736 ft | 281 kts | 338° |
| 2026-04-25 15:19 | 35.82701 | -5.78594 | 9515 ft | 283 kts | 337° |
| 2026-04-25 15:20 | 35.84472 | -5.79652 | 9898 ft | 281 kts | 337° |
| 2026-04-25 15:20 | 35.86273 | -5.80722 | 10003 ft | 294 kts | 336° |
| 2026-04-25 15:20 | 35.88115 | -5.81812 | 10012 ft | 291 kts | 337° |
| 2026-04-25 15:20 | 35.89911 | -5.82870 | 10027 ft | 291 kts | 336° |
| 2026-04-25 15:21 | 35.91705 | -5.83924 | 10456 ft | 283 kts | 337° |
| 2026-04-25 15:21 | 35.93520 | -5.84985 | 10769 ft | 300 kts | 336° |
| 2026-04-25 15:21 | 35.95483 | -5.86127 | 10952 ft | 323 kts | 336° |
| 2026-04-25 15:21 | 35.97566 | -5.87341 | 11308 ft | 337 kts | 336° |
| 2026-04-25 15:22 | 35.99697 | -5.88585 | 12039 ft | 340 kts | 336° |
| 2026-04-25 15:22 | 36.01830 | -5.89831 | 12760 ft | 343 kts | 336° |
| 2026-04-25 15:22 | 36.04005 | -5.91103 | 13444 ft | 349 kts | 336° |
| 2026-04-25 15:22 | 36.06212 | -5.92392 | 14157 ft | 353 kts | 336° |
| 2026-04-25 15:23 | 36.08437 | -5.93692 | 14926 ft | 353 kts | 336° |
| 2026-04-25 15:23 | 36.10649 | -5.94986 | 15781 ft | 352 kts | 337° |
| 2026-04-25 15:23 | 36.12858 | -5.96279 | 16531 ft | 355 kts | 336° |
| 2026-04-25 15:23 | 36.15110 | -5.97598 | 17105 ft | 361 kts | 337° |
| 2026-04-25 15:24 | 36.17412 | -5.98945 | 17688 ft | 368 kts | 336° |
| 2026-04-25 15:24 | 36.19580 | -6.00214 | 18454 ft | 366 kts | 336° |
| 2026-04-25 15:24 | 36.21903 | -6.01576 | 19105 ft | 369 kts | 336° |
| 2026-04-25 15:24 | 36.23478 | -6.02499 | 19497 ft | 372 kts | 336° |
| 2026-04-25 15:25 | 36.26598 | -6.04328 | 20286 ft | 376 kts | 336° |
| 2026-04-25 15:25 | 36.28974 | -6.05723 | 20869 ft | 379 kts | 336° |
| 2026-04-25 15:25 | 36.31347 | -6.07117 | 21512 ft | 380 kts | 336° |
| 2026-04-25 15:25 | 36.33746 | -6.08529 | 22081 ft | 383 kts | 336° |
| 2026-04-25 15:26 | 36.36170 | -6.09955 | 22674 ft | 385 kts | 335° |
| 2026-04-25 15:26 | 36.38579 | -6.11374 | 23275 ft | 387 kts | 335° |
| 2026-04-25 15:26 | 36.41036 | -6.12822 | 23784 ft | 390 kts | 335° |
| 2026-04-25 15:26 | 36.43497 | -6.14273 | 24238 ft | 393 kts | 335° |
| 2026-04-25 15:27 | 36.45970 | -6.15733 | 24708 ft | 395 kts | 335° |
| 2026-04-25 15:27 | 36.48455 | -6.17200 | 25163 ft | 397 kts | 335° |
| 2026-04-25 15:27 | 36.53435 | -6.20143 | 26050 ft | 401 kts | 335° |
| 2026-04-25 15:28 | 36.55987 | -6.21654 | 26480 ft | 404 kts | 335° |
| 2026-04-25 15:28 | 36.58530 | -6.23160 | 26928 ft | 406 kts | 335° |
| 2026-04-25 15:28 | 36.61103 | -6.24685 | 27281 ft | 410 kts | 335° |
| 2026-04-25 15:28 | 36.63661 | -6.26202 | 27750 ft | 410 kts | 335° |
| 2026-04-25 15:29 | 36.66247 | -6.27737 | 28408 ft | 406 kts | 335° |
| 2026-04-25 15:29 | 36.68786 | -6.29245 | 29075 ft | 402 kts | 335° |
| 2026-04-25 15:29 | 36.71310 | -6.30746 | 29653 ft | 401 kts | 335° |
| 2026-04-25 15:29 | 36.73827 | -6.32243 | 30147 ft | 401 kts | 335° |
| 2026-04-25 15:30 | 36.76345 | -6.33742 | 30616 ft | 399 kts | 334° |
| 2026-04-25 15:30 | 36.78837 | -6.35226 | 31167 ft | 395 kts | 334° |
| 2026-04-25 15:30 | 36.81308 | -6.36699 | 31689 ft | 392 kts | 334° |
| 2026-04-25 15:30 | 36.83768 | -6.38166 | 32024 ft | 394 kts | 334° |
| 2026-04-25 15:31 | 36.86254 | -6.39650 | 32025 ft | 402 kts | 334° |
| 2026-04-25 15:31 | 36.91383 | -6.42716 | 32046 ft | 414 kts | 334° |
| 2026-04-25 15:32 | 36.96586 | -6.45830 | 32030 ft | 415 kts | 334° |
| 2026-04-25 15:32 | 37.01701 | -6.48896 | 32008 ft | 400 kts | 334° |
| 2026-04-25 15:33 | 37.09212 | -6.53408 | 32026 ft | 401 kts | 335° |
| 2026-04-25 15:33 | 37.14251 | -6.56439 | 32044 ft | 404 kts | 334° |
| 2026-04-25 15:34 | 37.19335 | -6.59502 | 32035 ft | 407 kts | 334° |
| 2026-04-25 15:34 | 37.22753 | -6.61565 | 32032 ft | 408 kts | 334° |
| 2026-04-25 15:35 | 37.32153 | -6.67247 | 32021 ft | 411 kts | 335° |
| 2026-04-25 15:36 | 37.40080 | -6.71379 | 32026 ft | 411 kts | 339° |
| 2026-04-25 15:36 | 37.45434 | -6.73927 | 32024 ft | 411 kts | 339° |
| 2026-04-25 15:37 | 37.50763 | -6.76506 | 32024 ft | 410 kts | 339° |
| 2026-04-25 15:37 | 37.56082 | -6.79116 | 32020 ft | 410 kts | 339° |
| 2026-04-25 15:38 | 37.61375 | -6.81733 | 32029 ft | 410 kts | 339° |
| 2026-04-25 15:38 | 37.66698 | -6.84370 | 32012 ft | 410 kts | 339° |
| 2026-04-25 15:39 | 37.71961 | -6.86982 | 32016 ft | 406 kts | 339° |
| 2026-04-25 15:39 | 37.77205 | -6.89589 | 32011 ft | 402 kts | 339° |
| 2026-04-25 15:40 | 37.80673 | -6.91314 | 32014 ft | 400 kts | 339° |
| 2026-04-25 15:40 | 37.87563 | -6.94747 | 32025 ft | 400 kts | 339° |
| 2026-04-25 15:41 | 37.92755 | -6.97338 | 32024 ft | 402 kts | 339° |
| 2026-04-25 15:41 | 37.97964 | -6.99943 | 32021 ft | 404 kts | 339° |
| 2026-04-25 15:42 | 38.03104 | -7.02516 | 32019 ft | 406 kts | 339° |
| 2026-04-25 15:42 | 38.08370 | -7.05157 | 32025 ft | 408 kts | 339° |
| 2026-04-25 15:43 | 38.13666 | -7.07817 | 32012 ft | 410 kts | 339° |
| 2026-04-25 15:43 | 38.18976 | -7.10489 | 32010 ft | 411 kts | 339° |
| 2026-04-25 15:44 | 38.24283 | -7.13163 | 32028 ft | 411 kts | 339° |
| 2026-04-25 15:44 | 38.29603 | -7.15847 | 32000 ft | 411 kts | 339° |
| 2026-04-25 15:45 | 38.34907 | -7.18528 | 32000 ft | 410 kts | 339° |
| 2026-04-25 15:45 | 38.38451 | -7.20322 | 31998 ft | 408 kts | 339° |
| 2026-04-25 15:46 | 38.45447 | -7.23868 | 31992 ft | 404 kts | 339° |
| 2026-04-25 15:46 | 38.50633 | -7.26502 | 31989 ft | 399 kts | 339° |
| 2026-04-25 15:47 | 38.55759 | -7.29109 | 32001 ft | 395 kts | 339° |
| 2026-04-25 15:47 | 38.60865 | -7.31710 | 31997 ft | 394 kts | 339° |
| 2026-04-25 15:48 | 38.65955 | -7.34306 | 32009 ft | 395 kts | 339° |
| 2026-04-25 15:48 | 38.71072 | -7.36921 | 32006 ft | 398 kts | 339° |
| 2026-04-25 15:49 | 38.76246 | -7.39569 | 32005 ft | 400 kts | 339° |
| 2026-04-25 15:49 | 38.81439 | -7.42230 | 32008 ft | 403 kts | 339° |
| 2026-04-25 15:50 | 38.86654 | -7.44907 | 32008 ft | 405 kts | 339° |
| 2026-04-25 15:50 | 38.91009 | -7.47146 | 31996 ft | 407 kts | 339° |
| 2026-04-25 15:51 | 38.95379 | -7.49396 | 32004 ft | 407 kts | 339° |
| 2026-04-25 15:51 | 39.01525 | -7.52565 | 31994 ft | 407 kts | 339° |
| 2026-04-25 15:52 | 39.06774 | -7.55276 | 32007 ft | 406 kts | 339° |
| 2026-04-25 15:52 | 39.12015 | -7.57988 | 31995 ft | 405 kts | 339° |
| 2026-04-25 15:53 | 39.17235 | -7.60693 | 31992 ft | 404 kts | 339° |
| 2026-04-25 15:53 | 39.22427 | -7.63388 | 32003 ft | 402 kts | 339° |
| 2026-04-25 15:54 | 39.27613 | -7.66084 | 32006 ft | 401 kts | 339° |
| 2026-04-25 15:54 | 39.32789 | -7.68779 | 32009 ft | 401 kts | 339° |
| 2026-04-25 15:55 | 39.37924 | -7.71457 | 31996 ft | 388 kts | 339° |
| 2026-04-25 15:55 | 39.40385 | -7.72743 | 31979 ft | 374 kts | 339° |
| 2026-04-25 15:55 | 39.42773 | -7.73991 | 31853 ft | 370 kts | 339° |
| 2026-04-25 15:56 | 39.45132 | -7.75225 | 31644 ft | 363 kts | 339° |
| 2026-04-25 15:56 | 39.47475 | -7.76451 | 31279 ft | 360 kts | 339° |
| 2026-04-25 15:56 | 39.49781 | -7.77658 | 30972 ft | 357 kts | 339° |
| 2026-04-25 15:56 | 39.52076 | -7.78861 | 30638 ft | 355 kts | 339° |
| 2026-04-25 15:57 | 39.54361 | -7.80059 | 30298 ft | 353 kts | 339° |
| 2026-04-25 15:57 | 39.56633 | -7.81251 | 29939 ft | 351 kts | 339° |
| 2026-04-25 15:57 | 39.58868 | -7.82424 | 29559 ft | 349 kts | 339° |
| 2026-04-25 15:57 | 39.61140 | -7.83619 | 29168 ft | 347 kts | 339° |
| 2026-04-25 15:58 | 39.63359 | -7.84785 | 28810 ft | 344 kts | 339° |
| 2026-04-25 15:58 | 39.65546 | -7.85936 | 28468 ft | 341 kts | 339° |
| 2026-04-25 15:58 | 39.67769 | -7.87107 | 28098 ft | 339 kts | 339° |
| 2026-04-25 15:58 | 39.69944 | -7.88253 | 27753 ft | 336 kts | 339° |
| 2026-04-25 15:59 | 39.72072 | -7.89375 | 27405 ft | 334 kts | 339° |
| 2026-04-25 15:59 | 39.74249 | -7.90524 | 27068 ft | 332 kts | 339° |
| 2026-04-25 15:59 | 39.76383 | -7.91651 | 26735 ft | 330 kts | 340° |
| 2026-04-25 15:59 | 39.78510 | -7.92775 | 26389 ft | 330 kts | 340° |
| 2026-04-25 16:00 | 39.80610 | -7.93884 | 26074 ft | 330 kts | 340° |
| 2026-04-25 16:00 | 39.82052 | -7.94647 | 25848 ft | 333 kts | 340° |
| 2026-04-25 16:00 | 39.84979 | -7.96194 | 25368 ft | 346 kts | 340° |
| 2026-04-25 16:00 | 39.87192 | -7.97366 | 25024 ft | 348 kts | 340° |
| 2026-04-25 16:01 | 39.89434 | -7.98555 | 24648 ft | 348 kts | 340° |
| 2026-04-25 16:01 | 39.91671 | -7.99742 | 24279 ft | 347 kts | 340° |
| 2026-04-25 16:01 | 39.93787 | -8.00867 | 23955 ft | 346 kts | 340° |
| 2026-04-25 16:01 | 39.96024 | -8.02056 | 23570 ft | 346 kts | 340° |
| 2026-04-25 16:02 | 39.98249 | -8.03239 | 23174 ft | 345 kts | 340° |
| 2026-04-25 16:02 | 40.00457 | -8.04414 | 22796 ft | 343 kts | 340° |
| 2026-04-25 16:02 | 40.02664 | -8.05590 | 22438 ft | 341 kts | 340° |
| 2026-04-25 16:02 | 40.04854 | -8.06757 | 22082 ft | 339 kts | 340° |
| 2026-04-25 16:03 | 40.07024 | -8.07914 | 21733 ft | 337 kts | 340° |
| 2026-04-25 16:03 | 40.09204 | -8.09077 | 21391 ft | 336 kts | 339° |
| 2026-04-25 16:03 | 40.11357 | -8.10227 | 21054 ft | 334 kts | 339° |
| 2026-04-25 16:03 | 40.13500 | -8.11372 | 20708 ft | 333 kts | 340° |
| 2026-04-25 16:04 | 40.15646 | -8.12519 | 20369 ft | 332 kts | 340° |
| 2026-04-25 16:04 | 40.17786 | -8.13665 | 20029 ft | 332 kts | 339° |
| 2026-04-25 16:04 | 40.19919 | -8.14806 | 19650 ft | 332 kts | 339° |
| 2026-04-25 16:04 | 40.22053 | -8.15949 | 19332 ft | 331 kts | 339° |
| 2026-04-25 16:05 | 40.24184 | -8.17092 | 18977 ft | 330 kts | 339° |
| 2026-04-25 16:05 | 40.26287 | -8.18220 | 18632 ft | 330 kts | 339° |
| 2026-04-25 16:05 | 40.30552 | -8.20509 | 17902 ft | 328 kts | 339° |
| 2026-04-25 16:06 | 40.32656 | -8.21640 | 17547 ft | 327 kts | 339° |
| 2026-04-25 16:06 | 40.34759 | -8.22772 | 17199 ft | 325 kts | 339° |
| 2026-04-25 16:06 | 40.36836 | -8.23890 | 16857 ft | 324 kts | 339° |
| 2026-04-25 16:06 | 40.38925 | -8.25016 | 16521 ft | 322 kts | 339° |
| 2026-04-25 16:07 | 40.40993 | -8.26131 | 16193 ft | 321 kts | 339° |
| 2026-04-25 16:07 | 40.42357 | -8.26867 | 15970 ft | 320 kts | 339° |
| 2026-04-25 16:07 | 40.45100 | -8.28348 | 15528 ft | 318 kts | 339° |
| 2026-04-25 16:07 | 40.47150 | -8.29455 | 15191 ft | 317 kts | 339° |
| 2026-04-25 16:08 | 40.49187 | -8.30555 | 14865 ft | 316 kts | 339° |
| 2026-04-25 16:08 | 40.51217 | -8.31653 | 14524 ft | 315 kts | 339° |
| 2026-04-25 16:08 | 40.53242 | -8.32749 | 14192 ft | 315 kts | 339° |
| 2026-04-25 16:08 | 40.55270 | -8.33847 | 13858 ft | 315 kts | 339° |
| 2026-04-25 16:09 | 40.57299 | -8.34945 | 13492 ft | 315 kts | 339° |
| 2026-04-25 16:09 | 40.59317 | -8.36041 | 13153 ft | 313 kts | 340° |
| 2026-04-25 16:09 | 40.61327 | -8.37133 | 12832 ft | 311 kts | 339° |
| 2026-04-25 16:09 | 40.63264 | -8.38311 | 12754 ft | 302 kts | 335° |
| 2026-04-25 16:10 | 40.65112 | -8.39518 | 12633 ft | 293 kts | 335° |
| 2026-04-25 16:10 | 40.66929 | -8.40717 | 12356 ft | 291 kts | 335° |
| 2026-04-25 16:10 | 40.68739 | -8.41906 | 12033 ft | 291 kts | 336° |
| 2026-04-25 16:10 | 40.70549 | -8.43090 | 11741 ft | 289 kts | 335° |
| 2026-04-25 16:11 | 40.72350 | -8.44262 | 11450 ft | 288 kts | 335° |
| 2026-04-25 16:11 | 40.74139 | -8.45424 | 11189 ft | 286 kts | 335° |
| 2026-04-25 16:11 | 40.75933 | -8.46587 | 10880 ft | 287 kts | 335° |
| 2026-04-25 16:11 | 40.77716 | -8.47744 | 10594 ft | 286 kts | 337° |
| 2026-04-25 16:12 | 40.79476 | -8.48884 | 10318 ft | 284 kts | 335° |
| 2026-04-25 16:12 | 40.81244 | -8.50029 | 10062 ft | 283 kts | 335° |
| 2026-04-25 16:12 | 40.83008 | -8.51172 | 9819 ft | 281 kts | 336° |
| 2026-04-25 16:12 | 40.84193 | -8.51939 | 9601 ft | 281 kts | 336° |
| 2026-04-25 16:13 | 40.86517 | -8.53448 | 9234 ft | 280 kts | 336° |
| 2026-04-25 16:13 | 40.88254 | -8.54576 | 8957 ft | 279 kts | 336° |
| 2026-04-25 16:13 | 40.90019 | -8.55723 | 8279 ft | 286 kts | 336° |
| 2026-04-25 16:13 | 40.91812 | -8.56888 | 7651 ft | 289 kts | 335° |
| 2026-04-25 16:14 | 40.93630 | -8.58069 | 7025 ft | 293 kts | 336° |
| 2026-04-25 16:14 | 40.95465 | -8.59265 | 6393 ft | 295 kts | 337° |
| 2026-04-25 16:14 | 40.97310 | -8.60466 | 5755 ft | 296 kts | 337° |
| 2026-04-25 16:14 | 40.99196 | -8.61518 | 5096 ft | 294 kts | 347° |
| 2026-04-25 16:15 | 41.01173 | -8.62075 | 4479 ft | 292 kts | 351° |
| 2026-04-25 16:15 | 41.03159 | -8.62536 | 3900 ft | 289 kts | 350° |
| 2026-04-25 16:15 | 41.05126 | -8.63014 | 3349 ft | 286 kts | 349° |
| 2026-04-25 16:15 | 41.07046 | -8.63496 | 3103 ft | 272 kts | 348° |
| 2026-04-25 16:16 | 41.08855 | -8.63958 | 3040 ft | 257 kts | 348° |
| 2026-04-25 16:16 | 41.10576 | -8.64403 | 2763 ft | 250 kts | 347° |
| 2026-04-25 16:16 | 41.12251 | -8.64837 | 2479 ft | 243 kts | 347° |
| 2026-04-25 16:16 | 41.13882 | -8.65263 | 2179 ft | 233 kts | 347° |
| 2026-04-25 16:17 | 41.15433 | -8.65670 | 1857 ft | 220 kts | 347° |
| 2026-04-25 16:17 | 41.16849 | -8.66040 | 1592 ft | 199 kts | 347° |
| 2026-04-25 16:17 | 41.18146 | -8.66420 | 1320 ft | 178 kts | 344° |
| 2026-04-25 16:17 | 41.19276 | -8.66729 | 1127 ft | 156 kts | 348° |
| 2026-04-25 16:18 | 41.20293 | -8.66980 | 903 ft | 140 kts | 346° |
| 2026-04-25 16:18 | 41.20608 | -8.67061 | 831 ft | 133 kts | 346° |